Time;durP1;ratioP1;P1;durP2;ratioP2;P2;SDS_P1;SDS_P2;PMS_P1;PMS_P2;Temp;Humidity;BMP_temperature;BMP_pressure;BME280_temperature;BME280_humidity;BME280_pressure;Samples;Min_cycle;Max_cycle;Signal;HPM_P1;HPM_P2
2022/10/07 00:01:31;;;;;;;;;14.67;13.00;;;;;15.10;56.05;102354.22;4998135;28;45502;-69
2022/10/07 00:03:56;;;;;;;;;17.67;11.00;;;;;15.01;56.18;102344.31;4980723;28;45377;-70
2022/10/07 00:06:22;;;;;;;;;15.67;15.00;;;;;14.94;56.22;102332.44;4997995;28;47431;-71
2022/10/07 00:08:50;;;;;;;;;17.67;15.00;;;;;14.43;55.97;102251.19;4998167;28;45437;-70
2022/10/07 00:11:22;;;;;;;;;9.67;9.67;;;;;14.34;56.15;102240.38;4981164;28;45355;-70
2022/10/07 00:13:51;;;;;;;;;15.00;11.33;;;;;14.93;56.13;102345.00;4998949;28;45400;-70
2022/10/07 00:16:28;;;;;;;;;14.33;12.00;;;;;14.94;56.24;102338.66;4998420;28;45856;-71
2022/10/07 00:18:56;;;;;;;;;15.67;11.00;;;;;14.96;56.30;102346.53;4998185;28;45262;-69
2022/10/07 00:21:23;;;;;;;;;10.00;8.33;;;;;14.65;56.23;102293.00;4998702;28;45513;-70
2022/10/07 00:23:49;;;;;;;;;12.00;10.33;;;;;14.93;55.90;102344.13;4980651;28;45520;-70
2022/10/07 00:26:18;;;;;;;;;8.33;8.33;;;;;14.86;55.95;102331.28;4998261;28;46521;-69
2022/10/07 00:28:45;;;;;;;;;8.33;8.33;;;;;14.60;55.99;102281.81;4997878;28;45366;-70
2022/10/07 00:31:16;;;;;;;;;7.00;7.00;;;;;14.88;55.99;102332.00;4998226;28;45310;-70
2022/10/07 00:33:42;;;;;;;;;13.00;10.00;;;;;14.82;56.01;102319.16;4980155;28;45536;-69
2022/10/07 00:36:09;;;;;;;;;9.67;9.67;;;;;14.87;56.07;102326.78;4997751;28;45770;-70
2022/10/07 00:38:34;;;;;;;;;11.67;11.67;;;;;14.86;56.61;102333.97;4996624;28;45526;-70
2022/10/07 00:41:00;;;;;;;;;11.67;10.00;;;;;14.87;56.07;102330.31;4997948;28;45500;-71
2022/10/07 00:43:30;;;;;;;;;13.00;9.33;;;;;14.86;56.34;102325.94;4980401;28;45243;-70
2022/10/07 00:46:11;;;;;;;;;17.00;12.00;;;;;14.69;56.42;102307.81;4997285;28;46108;-70
2022/10/07 00:48:38;;;;;;;;;20.33;15.67;;;;;14.56;57.55;102280.38;4996293;28;45467;-70
2022/10/07 00:51:06;;;;;;;;;10.00;9.00;;;;;14.76;57.55;102329.53;4997565;28;45438;-69
2022/10/07 00:53:38;;;;;;;;;16.33;15.67;;;;;14.64;58.31;102310.03;4997813;28;45542;-70
2022/10/07 00:56:05;;;;;;;;;22.33;20.33;;;;;14.66;58.22;102307.22;4997401;28;46212;-70
2022/10/07 00:58:34;;;;;;;;;21.33;18.33;;;;;14.11;58.50;102203.06;4997377;28;45522;-70
2022/10/07 01:01:00;;;;;;;;;20.67;18.00;;;;;14.71;58.37;102316.53;4996280;28;45273;-70
2022/10/07 01:03:26;;;;;;;;;15.67;15.67;;;;;14.61;58.08;102286.19;4997214;28;45344;-70
2022/10/07 01:05:51;;;;;;;;;21.67;18.67;;;;;14.69;58.31;102307.81;4997083;28;46117;-70
2022/10/07 01:08:19;;;;;;;;;20.67;16.67;;;;;14.69;58.31;102305.13;4997123;28;45325;-70
2022/10/07 01:10:58;;;;;;;;;24.00;22.67;;;;;14.68;58.94;102300.75;4995844;28;45545;-70
2022/10/07 01:13:37;;;;;;;;;22.67;21.67;;;;;13.48;59.05;102111.34;4997293;28;45334;-70
2022/10/07 01:16:28;;;;;;;;;23.33;21.00;;;;;14.58;58.84;102300.69;4997109;28;45708;-70
2022/10/07 01:19:03;;;;;;;;;22.67;20.67;;;;;14.42;58.69;102278.88;5001119;28;45486;-69
2022/10/07 01:22:06;;;;;;;;;26.33;24.33;;;;;14.42;59.34;102300.28;4992968;28;45383;-69
2022/10/07 01:25:13;;;;;;;;;17.00;17.00;;;;;14.35;59.62;102290.22;4977704;28;45352;-70
2022/10/07 01:27:45;;;;;;;;;19.67;17.67;;;;;14.24;59.32;102278.63;4975636;28;45308;-70
2022/10/07 01:30:11;;;;;;;;;19.33;17.00;;;;;14.19;59.57;102275.47;4977727;28;45503;-69
2022/10/07 01:32:46;;;;;;;;;18.33;17.67;;;;;14.28;60.05;102282.72;4990677;28;45675;-69
2022/10/07 01:35:17;;;;;;;;;22.67;20.00;;;;;14.28;59.64;102288.09;4998227;28;45433;-69
2022/10/07 01:37:48;;;;;;;;;22.67;18.00;;;;;14.28;60.23;102282.72;4998439;28;46786;-69
2022/10/07 01:40:19;;;;;;;;;18.00;17.67;;;;;14.19;59.78;102255.91;4999913;28;45322;-69
2022/10/07 01:42:45;;;;;;;;;23.67;19.33;;;;;13.73;60.18;102168.06;4998007;28;45488;-69
2022/10/07 01:45:15;;;;;;;;;19.67;17.33;;;;;14.25;60.07;102261.59;4979419;28;45654;-69
2022/10/07 01:47:41;;;;;;;;;25.33;20.00;;;;;14.25;60.26;102255.41;4979089;28;47989;-69
2022/10/07 01:50:14;;;;;;;;;18.00;13.67;;;;;13.76;59.99;102171.31;4996986;28;45288;-67
2022/10/07 01:53:16;;;;;;;;;22.33;20.67;;;;;14.29;60.08;102255.00;4996895;28;45293;-69
2022/10/07 01:56:19;;;;;;;;;14.67;14.67;;;;;14.28;60.08;102249.78;4995726;28;45456;-70
2022/10/07 01:59:05;;;;;;;;;26.33;19.00;;;;;14.28;60.23;102250.63;4996615;28;46483;-70
2022/10/07 02:01:53;;;;;;;;;24.00;20.67;;;;;14.28;60.47;102249.78;4996242;28;45476;-70
2022/10/07 02:04:39;;;;;;;;;19.67;18.00;;;;;14.22;60.51;102235.13;4994988;28;45499;-70
2022/10/07 02:07:14;;;;;;;;;22.33;19.33;;;;;14.25;60.38;102234.00;4996737;28;45316;-69
2022/10/07 02:09:49;;;;;;;;;20.67;17.67;;;;;13.70;60.24;102148.63;4996431;28;45539;-69
2022/10/07 02:12:24;;;;;;;;;17.00;15.67;;;;;14.22;59.99;102232.44;4997305;28;45489;-70
2022/10/07 02:15:01;;;;;;;;;23.33;19.00;;;;;14.08;60.07;102208.69;4999652;28;45391;-69
2022/10/07 02:17:30;;;;;;;;;20.00;17.33;;;;;14.10;60.62;102209.41;5000105;28;45460;-68
2022/10/07 02:19:58;;;;;;;;;22.00;19.67;;;;;14.16;60.82;102216.91;4999044;28;45772;-69
2022/10/07 02:22:27;;;;;;;;;16.67;15.67;;;;;14.14;60.26;102213.50;4999465;28;45252;-68
2022/10/07 02:24:57;;;;;;;;;17.33;16.33;;;;;13.55;60.54;102115.19;4999894;28;45232;-70
2022/10/07 02:27:27;;;;;;;;;20.00;20.00;;;;;14.14;60.57;102216.19;5000226;28;45344;-70
2022/10/07 02:29:58;;;;;;;;;12.00;10.33;;;;;14.13;60.71;102214.50;4999631;28;46463;-70
2022/10/07 02:32:26;;;;;;;;;19.33;13.67;;;;;13.97;60.75;102190.03;4998112;28;45272;-70
2022/10/07 02:34:57;;;;;;;;;14.00;14.00;;;;;14.09;60.42;102196.16;4999434;28;45200;-69
2022/10/07 02:37:28;;;;;;;;;20.67;16.67;;;;;13.79;60.36;102152.34;4999505;28;45422;-69
2022/10/07 02:39:56;;;;;;;;;17.33;16.33;;;;;14.00;60.48;102190.59;4999403;28;45925;-70
2022/10/07 02:42:38;;;;;;;;;18.67;16.67;;;;;14.04;60.47;102199.25;4999076;28;45390;-69
2022/10/07 02:45:18;;;;;;;;;16.00;13.67;;;;;14.07;60.47;102193.63;4999356;28;45319;-70
2022/10/07 02:47:58;;;;;;;;;14.33;14.33;;;;;13.95;60.35;102181.28;4997769;28;45496;-70
2022/10/07 02:50:30;;;;;;;;;17.00;14.33;;;;;14.02;60.17;102185.16;4999983;28;45861;-69
2022/10/07 02:52:57;;;;;;;;;13.67;12.67;;;;;14.04;60.15;102193.91;4999584;28;45522;-68
2022/10/07 02:55:26;;;;;;;;;15.33;14.33;;;;;13.53;60.42;102102.94;4981691;28;45556;-68
2022/10/07 02:57:56;;;;;;;;;17.67;14.67;;;;;13.98;60.54;102176.53;4998911;28;45301;-69
2022/10/07 03:00:22;;;;;;;;;15.33;12.00;;;;;13.98;60.40;102178.34;4999103;28;46787;-69
2022/10/07 03:02:50;;;;;;;;;16.00;13.67;;;;;13.92;60.32;102174.38;4981366;28;46367;-69
2022/10/07 03:05:20;;;;;;;;;19.00;14.67;;;;;13.68;60.61;102145.25;4999595;28;45433;-69
2022/10/07 03:07:53;;;;;;;;;15.67;13.67;;;;;13.86;60.85;102179.41;4981453;28;45245;-70
2022/10/07 03:10:19;;;;;;;;;19.00;16.67;;;;;13.80;60.35;102158.53;4998643;28;46432;-70
2022/10/07 03:12:44;;;;;;;;;11.33;10.67;;;;;13.72;60.20;102139.63;4998655;28;45325;-69
2022/10/07 03:15:10;;;;;;;;;16.67;16.00;;;;;13.83;60.42;102159.16;4997922;28;45454;-68
2022/10/07 03:17:37;;;;;;;;;18.00;15.67;;;;;13.83;60.54;102155.63;4998977;28;45457;-68
2022/10/07 03:20:02;;;;;;;;;17.33;15.67;;;;;13.17;60.15;102048.94;4980926;28;46750;-69
2022/10/07 03:22:28;;;;;;;;;15.33;14.00;;;;;13.70;60.52;102139.78;4998571;28;45271;-69
2022/10/07 03:24:53;;;;;;;;;18.00;16.67;;;;;13.77;60.47;102153.44;4997848;28;45367;-69
2022/10/07 03:27:19;;;;;;;;;17.33;17.33;;;;;13.77;60.69;102148.09;4997737;28;45553;-69
2022/10/07 03:29:44;;;;;;;;;16.67;14.67;;;;;13.69;60.15;102136.25;4998877;28;45850;-69
2022/10/07 03:32:10;;;;;;;;;16.33;13.67;;;;;13.79;60.42;102151.50;4999640;28;45528;-69
2022/10/07 03:34:36;;;;;;;;;16.00;16.00;;;;;13.49;60.75;102107.69;4999722;28;45543;-69
2022/10/07 03:37:02;;;;;;;;;15.33;14.67;;;;;13.57;60.63;102117.72;4999216;28;45572;-69
2022/10/07 03:39:27;;;;;;;;;20.00;18.00;;;;;13.67;60.97;102135.53;4997036;28;48646;-70
2022/10/07 03:41:53;;;;;;;;;18.00;15.67;;;;;13.80;60.81;102163.88;4998525;28;45366;-69
2022/10/07 03:44:18;;;;;;;;;15.00;14.00;;;;;13.80;61.02;102154.03;4997535;28;45377;-70
2022/10/07 03:46:48;;;;;;;;;23.67;19.33;;;;;13.77;61.18;102156.97;4981167;28;45397;-70
2022/10/07 03:49:14;;;;;;;;;24.33;21.33;;;;;13.60;61.39;102131.66;4998440;28;46165;-69
2022/10/07 03:51:39;;;;;;;;;27.67;21.33;;;;;13.67;61.92;102154.25;4998407;28;45388;-71
2022/10/07 03:54:04;;;;;;;;;21.67;20.67;;;;;13.15;61.80;102071.41;4998556;28;45324;-70
2022/10/07 03:56:30;;;;;;;;;21.33;19.00;;;;;13.52;62.07;102126.13;4998701;28;45558;-68
2022/10/07 03:58:55;;;;;;;;;28.33;24.67;;;;;13.59;62.00;102146.00;4998017;28;45987;-69
2022/10/07 04:01:21;;;;;;;;;18.33;17.67;;;;;13.67;62.28;102154.25;4998520;28;45480;-70
2022/10/07 04:03:46;;;;;;;;;23.67;22.00;;;;;13.34;62.01;102098.28;4998471;28;45383;-70
2022/10/07 04:06:12;;;;;;;;;22.33;21.33;;;;;13.57;62.46;102139.94;4998265;28;45548;-70
2022/10/07 04:08:39;;;;;;;;;28.67;25.00;;;;;13.55;62.82;102144.56;4980257;28;48310;-70
2022/10/07 04:11:05;;;;;;;;;25.67;22.33;;;;;13.52;62.35;102138.66;4980406;28;45349;-70
2022/10/07 04:13:30;;;;;;;;;25.00;21.67;;;;;13.50;62.79;102145.94;4998062;28;45575;-69
2022/10/07 04:15:56;;;;;;;;;19.00;19.00;;;;;13.01;62.50;102060.06;4998656;28;45273;-70
2022/10/07 04:18:22;;;;;;;;;22.00;20.67;;;;;13.47;62.50;102140.88;4997820;28;46326;-70
2022/10/07 04:20:47;;;;;;;;;25.00;25.00;;;;;13.45;62.71;102140.16;4997815;28;45476;-69
2022/10/07 04:23:14;;;;;;;;;22.00;21.00;;;;;13.38;63.14;102143.31;4997488;28;45267;-70
2022/10/07 04:25:44;;;;;;;;;25.67;21.67;;;;;13.35;62.94;102132.03;4997805;28;45502;-68
2022/10/07 04:28:18;;;;;;;;;25.67;22.00;;;;;13.26;63.04;102114.97;4997297;28;46660;-69
2022/10/07 04:30:47;;;;;;;;;26.33;24.00;;;;;12.62;63.18;102015.34;4997424;28;45500;-69
2022/10/07 04:33:13;;;;;;;;;24.67;23.00;;;;;13.28;63.27;102130.88;4998045;28;45572;-69
2022/10/07 04:35:39;;;;;;;;;21.67;21.67;;;;;12.43;63.13;101983.97;4997546;28;45376;-69
2022/10/07 04:38:10;;;;;;;;;19.33;19.33;;;;;13.24;62.89;102116.09;4996960;28;46407;-70
2022/10/07 04:40:40;;;;;;;;;24.33;23.00;;;;;13.21;63.15;102109.16;4996488;28;46717;-69
2022/10/07 04:43:22;;;;;;;;;20.33;20.33;;;;;13.23;62.67;102114.38;4997821;28;45334;-70
2022/10/07 04:45:50;;;;;;;;;24.67;19.67;;;;;13.35;62.88;102135.56;4997891;28;45435;-70
2022/10/07 04:48:17;;;;;;;;;26.33;22.00;;;;;13.33;62.90;102115.31;4997456;28;45802;-70
2022/10/07 04:50:43;;;;;;;;;23.00;22.33;;;;;13.26;62.60;102104.28;4995643;28;45581;-69
2022/10/07 04:53:10;;;;;;;;;25.00;24.33;;;;;13.35;62.79;102119.53;4997137;28;45603;-70
2022/10/07 04:55:45;;;;;;;;;21.33;21.00;;;;;13.25;63.03;102109.75;4979749;28;45592;-69
2022/10/07 04:58:11;;;;;;;;;26.00;24.33;;;;;13.25;63.10;102117.78;4979313;28;48803;-69
2022/10/07 05:00:49;;;;;;;;;24.33;23.00;;;;;13.02;63.09;102076.94;4997214;28;45322;-70
2022/10/07 05:03:17;;;;;;;;;27.00;24.00;;;;;13.26;63.28;102112.31;4997007;28;45452;-70
2022/10/07 05:05:45;;;;;;;;;24.00;21.00;;;;;13.26;63.21;102123.00;4997210;28;45358;-70
2022/10/07 05:08:12;;;;;;;;;25.00;23.67;;;;;13.25;62.79;102112.44;4979040;28;47934;-69
2022/10/07 05:10:41;;;;;;;;;19.00;19.00;;;;;13.24;62.64;102111.59;4996961;28;45403;-69
2022/10/07 05:13:11;;;;;;;;;24.00;20.67;;;;;13.26;62.80;102111.47;4996689;28;45421;-70
2022/10/07 05:15:49;;;;;;;;;25.00;22.67;;;;;13.10;62.61;102086.00;4996844;28;45300;-70
2022/10/07 05:18:19;;;;;;;;;22.33;20.33;;;;;12.64;62.60;102000.88;4996749;28;46414;-71
2022/10/07 05:20:46;;;;;;;;;25.67;24.67;;;;;13.27;62.92;102110.47;4996790;28;45334;-71
2022/10/07 05:23:13;;;;;;;;;26.00;24.00;;;;;13.27;62.71;102107.81;4995747;28;45323;-70
2022/10/07 05:25:38;;;;;;;;;25.67;18.67;;;;;13.19;62.45;102099.56;4982972;28;45476;-69
2022/10/07 05:28:03;;;;;;;;;24.67;22.00;;;;;12.65;62.70;102009.75;4996910;28;45995;-70
2022/10/07 05:30:29;;;;;;;;;24.33;20.00;;;;;13.14;62.64;102088.41;4996927;28;45540;-69
2022/10/07 05:32:54;;;;;;;;;22.00;19.00;;;;;13.14;62.56;102091.06;4996917;28;51296;-70
2022/10/07 05:35:20;;;;;;;;;23.33;19.00;;;;;13.27;62.36;102113.16;5012489;28;45466;-70
2022/10/07 05:37:46;;;;;;;;;17.67;16.00;;;;;12.64;62.71;102010.72;4996727;28;46064;-71
2022/10/07 05:40:11;;;;;;;;;18.33;17.33;;;;;13.19;62.70;102104.91;4996856;28;45487;-72
2022/10/07 05:42:37;;;;;;;;;23.67;21.00;;;;;13.06;63.29;102099.72;4996782;28;45404;-71
2022/10/07 05:45:04;;;;;;;;;24.00;21.00;;;;;12.98;63.23;102096.81;4990271;28;45432;-69
2022/10/07 05:47:32;;;;;;;;;23.33;20.67;;;;;12.92;63.14;102084.84;5013337;28;45846;-70
2022/10/07 05:49:57;;;;;;;;;20.33;18.33;;;;;12.94;63.09;102085.56;5018741;28;46039;-70
2022/10/07 05:52:23;;;;;;;;;19.67;18.00;;;;;13.09;62.81;102105.66;5019977;28;45282;-69
2022/10/07 05:54:48;;;;;;;;;20.67;19.33;;;;;13.02;62.71;102099.16;5020413;28;45493;-70
2022/10/07 05:57:13;;;;;;;;;26.00;22.67;;;;;13.06;62.54;102100.56;5020464;28;46393;-69
2022/10/07 05:59:41;;;;;;;;;16.67;16.67;;;;;12.92;62.86;102076.00;5015008;28;45521;-70
2022/10/07 06:02:12;;;;;;;;;26.67;21.67;;;;;12.58;62.52;102013.88;5000307;28;45545;-68
2022/10/07 06:04:37;;;;;;;;;19.67;17.67;;;;;12.50;62.30;102009.16;5000322;28;45250;-68
2022/10/07 06:07:04;;;;;;;;;23.00;23.00;;;;;13.02;63.05;102099.16;4980845;28;47763;-69
2022/10/07 06:14:58;;;;;;;;;27.67;22.33;;;;;12.93;62.98;102075.00;4999690;28;45817;-69
2022/10/07 06:17:23;;;;;;;;;34.00;29.33;;;;;13.13;62.91;102100.06;4999945;28;46408;-71
2022/10/07 06:19:49;;;;;;;;;22.00;20.00;;;;;13.16;62.34;102100.66;5000724;28;45505;-83
2022/10/07 06:22:14;;;;;;;;;29.00;19.33;;;;;12.97;62.70;102069.28;4984747;28;45608;-71
2022/10/07 06:24:39;;;;;;;;;22.67;19.33;;;;;13.06;62.50;102083.72;4999048;28;45353;-69
2022/10/07 06:27:06;;;;;;;;;22.00;21.33;;;;;13.16;63.03;102094.47;5001368;28;46700;-69
2022/10/07 06:29:31;;;;;;;;;16.67;16.33;;;;;13.17;62.86;102101.50;4999142;28;45349;-70
2022/10/07 06:31:57;;;;;;;;;26.33;22.00;;;;;13.14;62.43;102104.44;4999768;28;45353;-69
2022/10/07 06:34:22;;;;;;;;;23.33;20.33;;;;;13.22;62.40;102104.69;4999895;28;45483;-68
2022/10/07 06:36:47;;;;;;;;;15.67;14.33;;;;;13.23;62.46;102104.56;4999713;28;45599;-69
2022/10/07 06:39:16;;;;;;;;;23.33;21.67;;;;;13.02;62.37;102075.13;4998648;28;45359;-69
2022/10/07 06:41:41;;;;;;;;;24.33;21.00;;;;;13.23;62.15;102101.03;4998204;28;45263;-70
2022/10/07 06:44:06;;;;;;;;;22.33;19.33;;;;;13.26;62.10;102090.09;4999799;28;45410;-69
2022/10/07 06:46:32;;;;;;;;;34.00;26.67;;;;;13.42;61.98;102111.03;4998761;28;46472;-69
2022/10/07 06:48:57;;;;;;;;;23.33;21.67;;;;;13.29;61.87;102079.16;5002047;28;45683;-77
2022/10/07 06:51:23;;;;;;;;;24.00;22.33;;;;;13.43;61.33;102094.88;5001719;28;45523;-68
2022/10/07 06:53:56;;;;;;;;;24.00;23.33;;;;;13.54;61.31;102104.63;4992908;28;45557;-71
2022/10/07 06:56:22;;;;;;;;;22.00;19.67;;;;;13.52;61.36;102096.75;4980075;28;45521;-69
2022/10/07 06:58:50;;;;;;;;;24.00;21.00;;;;;13.49;61.29;102083.66;4990715;28;45920;-70
2022/10/07 07:01:16;;;;;;;;;26.00;20.67;;;;;13.64;61.36;102092.19;4978584;28;45326;-69
2022/10/07 07:03:41;;;;;;;;;21.00;19.00;;;;;13.39;61.39;102048.84;4995496;28;45456;-70
2022/10/07 07:06:07;;;;;;;;;28.00;20.67;;;;;13.67;60.74;102095.44;4995294;28;45635;-71
2022/10/07 07:08:34;;;;;;;;;28.00;26.67;;;;;13.81;61.38;102110.28;4998172;28;45288;-68
2022/10/07 07:13:54;;;;;;;;;23.67;20.00;;;;;14.24;59.39;102034.34;4995566;28;45508;-70
2022/10/07 07:16:20;;;;;;;;;19.67;18.00;;;;;15.57;56.94;102097.19;5009611;28;46078;-69
2022/10/07 07:18:53;;;;;;;;;23.67;21.33;;;;;16.43;54.44;102104.16;5000316;28;45499;-70
2022/10/07 07:21:18;;;;;;;;;28.33;23.00;;;;;16.90;52.82;102099.50;4999410;28;45545;-70
2022/10/07 07:23:44;;;;;;;;;19.00;18.00;;;;;17.41;51.73;102095.25;4996944;28;45440;-72
2022/10/07 07:26:10;;;;;;;;;25.67;19.67;;;;;17.87;50.01;102079.81;5012050;28;47518;-70
2022/10/07 07:28:35;;;;;;;;;21.67;20.67;;;;;18.28;48.73;102067.41;5003351;28;45425;-70
2022/10/07 07:31:08;;;;;;;;;20.67;18.67;;;;;18.86;47.09;102060.38;4998896;28;45423;-70
2022/10/07 07:33:36;;;;;;;;;22.00;19.00;;;;;19.15;46.27;102031.91;4997256;28;45504;-71
2022/10/07 07:36:15;;;;;;;;;21.00;16.33;;;;;20.11;45.09;102092.31;4996063;28;46013;-70
2022/10/07 07:38:42;;;;;;;;;18.67;16.33;;;;;20.59;43.58;102083.19;4998832;28;45497;-70
2022/10/07 07:41:08;;;;;;;;;16.00;16.00;;;;;21.31;42.54;102078.31;4998981;28;45310;-70
2022/10/07 07:43:34;;;;;;;;;19.67;18.67;;;;;21.71;40.30;102058.16;4998569;28;45598;-70
2022/10/07 07:46:00;;;;;;;;;19.00;18.67;;;;;21.98;40.28;102021.47;4997785;28;46605;-69
2022/10/07 07:48:26;;;;;;;;;18.00;17.00;;;;;22.57;38.51;102062.03;4997525;28;45423;-73
2022/10/07 07:50:51;;;;;;;;;22.00;21.00;;;;;22.86;39.00;102085.56;4995688;28;45492;-72
2022/10/07 07:53:16;;;;;;;;;24.67;22.33;;;;;23.19;38.35;102075.00;4979703;28;45342;-69
2022/10/07 07:55:55;;;;;;;;;13.33;13.00;;;;;23.59;37.62;102065.34;4995275;28;46220;-71
2022/10/07 07:58:23;;;;;;;;;19.67;16.00;;;;;24.10;36.47;102077.78;4995190;28;45465;-71
2022/10/07 08:01:04;;;;;;;;;15.00;14.00;;;;;24.44;35.85;102053.31;4993961;28;45634;-73
2022/10/07 08:03:30;;;;;;;;;16.67;14.00;;;;;25.19;35.01;102056.81;4992691;28;45454;-74
2022/10/07 08:05:59;;;;;;;;;18.00;14.67;;;;;25.57;33.73;102046.13;4994590;28;45519;-71
2022/10/07 08:08:24;;;;;;;;;8.67;7.67;;;;;25.76;32.80;101982.63;4993830;28;46413;-72
2022/10/07 08:10:50;;;;;;;;;11.00;9.00;;;;;26.56;31.83;102064.09;4995148;28;62919;-71
2022/10/07 08:13:15;;;;;;;;;14.33;13.67;;;;;26.47;31.24;102038.16;4994528;28;45507;-71
2022/10/07 08:15:40;;;;;;;;;12.67;11.67;;;;;26.64;31.43;102063.88;4998718;28;59611;-71
2022/10/07 08:18:06;;;;;;;;;14.00;13.33;;;;;26.64;31.21;102069.31;5016182;28;45460;-70
2022/10/07 08:20:32;;;;;;;;;15.67;12.00;;;;;26.61;30.83;102035.09;5000348;28;45631;-70
2022/10/07 08:22:58;;;;;;;;;15.00;14.00;;;;;27.02;30.01;102063.00;5016687;28;45495;-72
2022/10/07 08:25:24;;;;;;;;;11.67;10.67;;;;;27.15;30.48;102057.44;5002469;28;46281;-70
2022/10/07 08:27:50;;;;;;;;;15.67;14.67;;;;;27.36;29.61;102048.88;4991585;28;46813;-70
2022/10/07 08:30:15;;;;;;;;;13.00;11.00;;;;;27.47;29.76;102039.94;5010500;28;45442;-71
2022/10/07 08:32:41;;;;;;;;;13.33;10.67;;;;;27.63;29.47;102054.09;4986121;28;45451;-71
2022/10/07 08:35:06;;;;;;;;;9.00;7.67;;;;;27.51;29.17;102052.09;4980046;28;49016;-71
2022/10/07 08:37:31;;;;;;;;;11.00;8.67;;;;;27.20;29.49;102024.84;4997044;28;45354;-70
2022/10/07 08:39:57;;;;;;;;;11.00;11.00;;;;;27.21;29.36;102035.53;4997690;28;45486;-70
2022/10/07 08:42:38;;;;;;;;;11.00;10.00;;;;;26.91;29.51;101996.31;5016410;28;45402;-70
2022/10/07 08:45:07;;;;;;;;;12.33;12.33;;;;;26.64;30.23;102001.13;4976550;28;46767;-69
2022/10/07 08:47:40;;;;;;;;;15.67;15.33;;;;;26.64;30.60;102042.88;4978544;28;45479;-72
2022/10/07 08:50:22;;;;;;;;;15.00;15.00;;;;;26.12;30.37;101980.41;5014850;28;45306;-73
2022/10/07 08:52:58;;;;;;;;;14.33;12.33;;;;;26.29;31.15;102042.38;5015551;28;45472;-70
2022/10/07 08:55:55;;;;;;;;;16.33;14.33;;;;;26.07;31.46;102008.31;5016208;28;47803;-70
2022/10/07 08:58:42;;;;;;;;;16.33;13.33;;;;;26.06;31.98;102009.38;5017133;28;45353;-71
2022/10/07 09:01:35;;;;;;;;;17.67;15.33;;;;;25.97;31.73;102027.00;5016050;28;45278;-72
2022/10/07 09:04:34;;;;;;;;;17.67;15.33;;;;;25.93;31.72;102028.47;5011524;28;45451;-72
2022/10/07 09:07:11;;;;;;;;;20.00;17.67;;;;;25.29;32.01;101928.47;4977759;28;45565;-71
2022/10/07 09:09:52;;;;;;;;;7.33;6.33;;;;;25.88;31.85;101984.69;5002094;28;45258;-71
2022/10/07 09:12:23;;;;;;;;;16.00;15.00;;;;;26.28;31.41;102015.34;5017970;28;45685;-70
2022/10/07 09:14:54;;;;;;;;;14.00;13.67;;;;;26.31;31.43;102012.19;5012678;28;45418;-72
2022/10/07 09:17:29;;;;;;;;;13.33;13.33;;;;;26.59;30.91;102006.38;4985731;28;48590;-69
2022/10/07 09:20:01;;;;;;;;;13.33;13.00;;;;;26.97;30.58;101979.84;4996304;28;46918;-69
2022/10/07 09:22:34;;;;;;;;;15.00;13.67;;;;;26.45;29.36;101790.22;4995779;28;45271;-72
2022/10/07 09:25:21;;;;;;;;;18.33;13.67;;;;;28.48;28.16;101990.22;5012312;28;45367;-72
2022/10/07 09:27:49;;;;;;;;;15.67;13.33;;;;;28.90;27.51;101962.00;5014553;28;46593;-72
2022/10/07 09:30:15;;;;;;;;;13.67;12.67;;;;;29.10;26.66;101959.75;5015274;28;45500;-71
2022/10/07 09:32:44;;;;;;;;;11.67;11.67;;;;;29.37;27.38;101985.59;5010824;28;45576;-71
2022/10/07 09:35:24;;;;;;;;;12.67;11.00;;;;;29.22;26.99;101973.44;4995850;28;45392;-71
2022/10/07 09:38:00;;;;;;;;;12.33;11.67;;;;;28.94;26.90;101968.69;4996999;28;45728;-71
2022/10/07 09:40:25;;;;;;;;;14.67;13.67;;;;;28.48;27.85;101970.22;5016464;28;45461;-70
2022/10/07 09:42:53;;;;;;;;;11.33;11.33;;;;;28.11;28.04;101969.44;4970024;28;45718;-71
2022/10/07 09:45:24;;;;;;;;;10.00;10.00;;;;;27.58;28.78;101967.31;4976942;28;45592;-70
2022/10/07 09:47:52;;;;;;;;;11.67;11.00;;;;;26.68;29.41;101896.78;4976484;28;46722;-71
2022/10/07 09:50:35;;;;;;;;;11.67;9.67;;;;;26.64;30.30;101957.47;4990739;28;45600;-71
2022/10/07 09:53:01;;;;;;;;;10.33;8.67;;;;;26.10;30.92;101960.72;4975817;28;45422;-70
2022/10/07 09:55:39;;;;;;;;;9.33;8.00;;;;;25.60;31.34;101953.09;4991814;28;45503;-70
2022/10/07 09:58:16;;;;;;;;;14.67;13.67;;;;;24.84;32.15;101922.84;4986191;28;45839;-70
2022/10/07 10:00:45;;;;;;;;;12.00;9.00;;;;;24.58;32.76;101942.69;4977064;28;45428;-71
2022/10/07 10:03:11;;;;;;;;;7.00;6.00;;;;;24.03;33.43;101946.50;4976825;28;45262;-71
2022/10/07 10:05:40;;;;;;;;;9.33;8.00;;;;;23.69;33.73;101950.97;4976747;28;45336;-71
2022/10/07 10:08:21;;;;;;;;;7.67;7.67;;;;;23.23;35.11;101945.25;4975164;28;47018;-70
2022/10/07 10:10:53;;;;;;;;;8.00;8.00;;;;;22.86;35.52;101941.81;4976336;28;45506;-71
2022/10/07 10:13:28;;;;;;;;;8.67;6.67;;;;;22.53;35.45;101906.25;4975024;28;45599;-69
2022/10/07 10:15:54;;;;;;;;;9.67;8.67;;;;;22.24;35.65;101884.72;4974719;28;45557;-71
2022/10/07 10:18:29;;;;;;;;;9.00;6.67;;;;;21.70;36.61;101844.50;4983839;28;47933;-71
2022/10/07 10:20:54;;;;;;;;;6.33;6.33;;;;;21.89;37.13;101908.88;4990467;28;45479;-71
2022/10/07 10:23:35;;;;;;;;;9.33;7.00;;;;;21.73;37.68;101920.75;4976010;28;46495;-72
2022/10/07 10:26:35;;;;;;;;;8.00;7.00;;;;;21.49;37.69;101924.59;4975906;28;45386;-71
2022/10/07 10:29:24;;;;;;;;;7.00;6.00;;;;;21.28;38.27;101927.22;4980684;28;47039;-69
2022/10/07 10:32:14;;;;;;;;;6.67;6.33;;;;;20.44;38.79;101809.44;4985338;28;45487;-71
2022/10/07 10:35:03;;;;;;;;;3.00;3.00;;;;;20.71;38.31;101894.47;4975052;28;45525;-71
2022/10/07 10:37:47;;;;;;;;;4.00;4.00;;;;;20.66;39.14;101908.53;4971372;28;45484;-72
2022/10/07 10:40:23;;;;;;;;;4.00;4.00;;;;;20.51;38.22;101902.22;4979754;28;45746;-72
2022/10/07 10:43:19;;;;;;;;;3.00;3.00;;;;;20.36;38.54;101908.38;4994419;28;46188;-72
2022/10/07 10:46:21;;;;;;;;;3.33;2.33;;;;;20.29;39.50;101904.72;4979359;28;45314;-70
2022/10/07 10:48:58;;;;;;;;;2.00;2.00;;;;;20.19;39.59;101904.09;4970359;28;45455;-71
2022/10/07 10:51:43;;;;;;;;;3.00;2.00;;;;;20.05;39.11;101903.03;4993786;28;45733;-71
2022/10/07 10:54:42;;;;;;;;;3.33;3.33;;;;;20.01;39.29;101901.66;4993597;28;46090;-72
2022/10/07 10:57:41;;;;;;;;;4.67;3.00;;;;;19.93;39.77;101892.78;4979272;28;45547;-70
2022/10/07 11:00:21;;;;;;;;;1.67;1.33;;;;;19.80;39.01;101879.88;4972951;28;45633;-72
2022/10/07 11:03:16;;;;;;;;;4.00;3.00;;;;;19.39;39.34;101847.66;4982126;28;46311;-71
2022/10/07 11:05:43;;;;;;;;;3.33;3.33;;;;;19.39;39.57;101869.22;4979722;28;45335;-70
2022/10/07 11:08:16;;;;;;;;;4.00;1.33;;;;;19.38;39.75;101888.28;4977588;28;45387;-70
2022/10/07 11:10:48;;;;;;;;;3.00;1.00;;;;;19.23;39.42;101879.25;4994848;28;45564;-74
2022/10/07 11:13:23;;;;;;;;;5.00;3.00;;;;;19.22;40.00;101878.41;4976698;28;46970;-73
2022/10/07 11:16:03;;;;;;;;;3.00;2.00;;;;;18.93;39.89;101835.84;4976015;28;45512;-71
2022/10/07 11:18:40;;;;;;;;;2.50;1.00;;;;;19.02;39.48;101872.56;4979841;28;45382;-71
2022/10/07 11:21:12;;;;;;;;;5.33;3.33;;;;;18.76;39.97;101831.50;4979831;28;45344;-71
2022/10/07 11:24:00;;;;;;;;;5.00;2.67;;;;;18.81;40.89;101853.38;4981736;28;47760;-72
2022/10/07 11:26:57;;;;;;;;;2.00;2.00;;;;;18.89;40.66;101856.06;4993195;28;45591;-71
2022/10/07 11:30:01;;;;;;;;;4.67;2.00;;;;;18.96;40.48;101850.81;4998324;28;45173;-71
2022/10/07 11:32:34;;;;;;;;;6.00;4.00;;;;;18.75;40.38;101813.66;4985731;28;45631;-71
2022/10/07 11:35:24;;;;;;;;;2.00;2.00;;;;;18.95;39.96;101841.91;4979126;28;45779;-71
2022/10/07 11:38:15;;;;;;;;;2.00;2.00;;;;;18.98;40.15;101844.25;4978810;28;45854;-71
2022/10/07 11:40:50;;;;;;;;;12.33;11.00;;;;;18.89;40.26;101822.91;4989776;28;45263;-73